Time;durP1;ratioP1;P1;durP2;ratioP2;P2;SDS_P1;SDS_P2;PMS_P1;PMS_P2;Temp;Humidity;BMP_temperature;BMP_pressure;BME280_temperature;BME280_humidity;BME280_pressure;Samples;Min_cycle;Max_cycle;Signal;HPM_P1;HPM_P2
2022/03/07 00:00:37;;;;;;;12.43;7.00;;;1.30;99.90;;;;;;5091996;28;20081;-42
2022/03/07 00:03:03;;;;;;;13.23;7.35;;;1.20;99.90;;;;;;5091732;28;20032;-44
2022/03/07 00:05:29;;;;;;;11.52;6.80;;;1.20;99.90;;;;;;5091822;28;20036;-41
2022/03/07 00:07:55;;;;;;;11.02;6.85;;;1.20;99.90;;;;;;5092078;28;20064;-42
2022/03/07 00:10:20;;;;;;;12.85;7.38;;;1.20;99.90;;;;;;5091550;28;20502;-43
2022/03/07 00:12:46;;;;;;;11.05;7.38;;;1.20;99.90;;;;;;5092059;28;20036;-42
2022/03/07 00:15:12;;;;;;;11.07;7.03;;;1.00;99.90;;;;;;5091634;28;20124;-44
2022/03/07 00:17:37;;;;;;;13.75;7.90;;;1.00;99.90;;;;;;5091595;28;20039;-42
2022/03/07 00:20:04;;;;;;;14.00;7.18;;;1.00;99.90;;;;;;5091423;28;20032;-46
2022/03/07 00:22:30;;;;;;;12.35;7.43;;;1.00;99.90;;;;;;5091783;28;20024;-43
2022/03/07 00:24:55;;;;;;;15.38;8.68;;;1.00;99.90;;;;;;5090737;28;20569;-43
2022/03/07 00:27:21;;;;;;;12.35;7.80;;;0.90;99.90;;;;;;5091102;28;20172;-42
2022/03/07 00:29:47;;;;;;;12.52;8.20;;;0.80;99.90;;;;;;5091493;28;20132;-42
2022/03/07 00:32:13;;;;;;;13.35;7.65;;;0.80;99.90;;;;;;5091284;28;20058;-41
2022/03/07 00:34:39;;;;;;;13.02;7.50;;;0.70;99.90;;;;;;5091217;28;20040;-42
2022/03/07 00:37:05;;;;;;;13.43;6.97;;;0.60;99.90;;;;;;5091373;28;20032;-43
2022/03/07 00:39:31;;;;;;;13.93;7.65;;;0.60;99.90;;;;;;5091053;28;20067;-43
2022/03/07 00:41:57;;;;;;;13.05;8.05;;;0.50;99.90;;;;;;5091056;28;20078;-43
2022/03/07 00:44:22;;;;;;;15.60;8.05;;;0.50;99.90;;;;;;5091378;28;20051;-42
2022/03/07 00:46:48;;;;;;;12.82;7.55;;;0.40;99.90;;;;;;5089843;28;20110;-43
2022/03/07 00:49:14;;;;;;;12.23;7.30;;;0.30;99.90;;;;;;5090896;28;20043;-43
2022/03/07 00:51:39;;;;;;;10.63;7.43;;;0.30;99.90;;;;;;5091074;28;20395;-43
2022/03/07 00:54:05;;;;;;;13.18;7.10;;;0.20;99.90;;;;;;5090769;28;20075;-42
2022/03/07 00:56:31;;;;;;;13.80;7.28;;;0.20;99.90;;;;;;5089647;28;20040;-43
2022/03/07 00:58:56;;;;;;;12.73;8.05;;;0.20;99.90;;;;;;5090884;28;20115;-43
2022/03/07 01:01:22;;;;;;;13.82;8.32;;;0.20;99.90;;;;;;5090817;28;20071;-45
2022/03/07 01:03:48;;;;;;;14.13;7.75;;;0.20;99.90;;;;;;5090942;28;20505;-42
2022/03/07 01:06:14;;;;;;;12.82;7.80;;;0.10;99.90;;;;;;5089370;28;20044;-42
2022/03/07 01:08:39;;;;;;;13.27;7.72;;;0.00;99.90;;;;;;5090543;28;20028;-42
2022/03/07 01:11:06;;;;;;;11.68;7.25;;;0.10;99.90;;;;;;5090660;28;20115;-42
2022/03/07 01:13:31;;;;;;;11.55;7.47;;;0.00;99.90;;;;;;5089220;28;20063;-44
2022/03/07 01:15:57;;;;;;;13.63;8.13;;;0.10;99.90;;;;;;5090611;28;20032;-43
2022/03/07 01:18:23;;;;;;;16.58;9.35;;;0.10;99.90;;;;;;5090366;28;20058;-44
2022/03/07 01:20:48;;;;;;;13.55;8.70;;;0.00;99.90;;;;;;5089997;28;20043;-43
2022/03/07 01:23:14;;;;;;;14.82;8.82;;;0.10;99.90;;;;;;5089074;28;20040;-41
2022/03/07 01:25:40;;;;;;;15.43;9.23;;;0.00;99.90;;;;;;5090636;28;20051;-47
2022/03/07 01:28:05;;;;;;;15.15;8.27;;;0.00;99.90;;;;;;5090076;28;20052;-42
2022/03/07 01:30:31;;;;;;;18.08;9.07;;;0.10;99.90;;;;;;5090641;28;20092;-43
2022/03/07 01:32:57;;;;;;;17.73;9.10;;;0.00;99.90;;;;;;5090263;28;20035;-43
2022/03/07 01:35:23;;;;;;;13.55;8.63;;;-0.10;99.90;;;;;;5090153;28;20068;-42
2022/03/07 01:37:49;;;;;;;16.02;9.48;;;0.00;99.90;;;;;;5088491;28;20032;-46
2022/03/07 01:40:15;;;;;;;15.32;9.38;;;0.10;99.90;;;;;;5090120;28;20027;-42
2022/03/07 01:42:41;;;;;;;18.45;8.88;;;0.00;99.90;;;;;;5090199;28;20036;-44
2022/03/07 01:45:12;;;;;;;15.70;9.20;;;0.10;99.90;;;;;;5090402;28;20043;-43
2022/03/07 01:47:38;;;;;;;15.43;9.15;;;-0.10;99.90;;;;;;5090589;28;20122;-40
2022/03/07 01:50:06;;;;;;;15.15;8.35;;;-0.20;99.90;;;;;;5086426;28;21113;-43
2022/03/07 01:52:39;;;;;;;11.90;8.40;;;-0.20;99.90;;;;;;5088485;28;20075;-42
2022/03/07 01:55:07;;;;;;;15.52;9.05;;;-0.40;99.90;;;;;;5090086;28;20106;-42
2022/03/07 01:57:36;;;;;;;13.98;8.68;;;-0.30;99.90;;;;;;5090026;28;20040;-42
2022/03/07 02:00:05;;;;;;;16.73;9.45;;;-0.40;99.90;;;;;;5090163;28;20032;-42
2022/03/07 02:02:30;;;;;;;13.40;8.82;;;-0.30;99.90;;;;;;5089210;28;20039;-45
2022/03/07 02:04:56;;;;;;;16.42;9.15;;;-0.50;99.90;;;;;;5089912;28;20046;-41
2022/03/07 02:07:23;;;;;;;14.50;8.25;;;-0.30;99.90;;;;;;5089993;28;20058;-41
2022/03/07 02:09:52;;;;;;;14.80;9.38;;;-0.50;99.90;;;;;;5089980;28;20128;-44
2022/03/07 02:12:17;;;;;;;17.08;9.50;;;-0.50;99.90;;;;;;5090238;28;21892;-45
2022/03/07 02:14:43;;;;;;;16.20;9.48;;;-0.60;99.90;;;;;;5088726;28;20071;-42
2022/03/07 02:17:08;;;;;;;15.80;8.95;;;-0.60;99.90;;;;;;5089986;28;20036;-42
2022/03/07 02:19:36;;;;;;;15.90;9.02;;;-0.50;99.90;;;;;;5089470;28;20109;-44
2022/03/07 02:22:03;;;;;;;15.15;9.40;;;-0.80;99.90;;;;;;5089937;28;20044;-40
2022/03/07 02:24:29;;;;;;;18.10;9.40;;;-0.80;99.90;;;;;;5089920;28;20445;-41
2022/03/07 02:27:03;;;;;;;15.55;9.10;;;-0.80;99.90;;;;;;5089751;28;20051;-42
2022/03/07 02:29:29;;;;;;;15.27;9.52;;;-0.70;99.90;;;;;;5090235;28;20044;-42
2022/03/07 02:31:55;;;;;;;18.40;9.60;;;-0.70;99.90;;;;;;5088445;28;20048;-42
2022/03/07 02:34:21;;;;;;;17.02;10.60;;;-0.70;99.90;;;;;;5089968;28;20040;-45
2022/03/07 02:36:47;;;;;;;14.85;9.43;;;-0.70;99.90;;;;;;5089915;28;20183;-41
2022/03/07 02:39:13;;;;;;;19.00;9.68;;;-0.70;99.90;;;;;;5089981;28;20596;-43
2022/03/07 02:41:39;;;;;;;16.30;10.10;;;-0.60;99.90;;;;;;5089804;28;20032;-41
2022/03/07 02:44:06;;;;;;;15.30;9.77;;;-0.60;99.90;;;;;;5089795;28;20040;-41
2022/03/07 02:46:31;;;;;;;15.57;10.18;;;-0.60;99.90;;;;;;5089022;28;20043;-42
2022/03/07 02:48:57;;;;;;;17.80;10.30;;;-0.80;99.90;;;;;;5093388;28;20406;-41
2022/03/07 02:51:23;;;;;;;17.38;10.85;;;-0.70;99.90;;;;;;5093656;28;20043;-42
2022/03/07 02:53:49;;;;;;;19.05;10.32;;;-0.80;99.90;;;;;;5093518;28;20035;-42
2022/03/07 02:56:15;;;;;;;15.75;9.65;;;-0.80;99.90;;;;;;5093613;28;20036;-40
2022/03/07 02:58:41;;;;;;;16.95;9.85;;;-0.70;99.90;;;;;;5075385;28;20043;-44
2022/03/07 03:01:07;;;;;;;15.43;10.05;;;-0.90;99.90;;;;;;5093581;28;20028;-44
2022/03/07 03:03:33;;;;;;;16.92;10.65;;;-0.90;99.90;;;;;;5093354;28;20054;-45
2022/03/07 03:05:59;;;;;;;19.17;10.88;;;-0.80;99.90;;;;;;5093377;28;20410;-40
2022/03/07 03:08:25;;;;;;;18.42;10.65;;;-0.90;99.90;;;;;;5093546;28;20066;-42
2022/03/07 03:10:52;;;;;;;20.83;11.43;;;-0.80;99.90;;;;;;5093107;28;20039;-44
2022/03/07 03:13:20;;;;;;;19.90;10.57;;;-0.80;99.90;;;;;;5093394;28;20044;-46
2022/03/07 03:15:46;;;;;;;19.17;11.52;;;-0.70;99.90;;;;;;5093041;28;20044;-41
2022/03/07 03:18:13;;;;;;;16.17;10.48;;;-0.80;99.90;;;;;;5093349;28;20105;-43
2022/03/07 03:20:39;;;;;;;20.70;11.02;;;-0.80;99.90;;;;;;5092758;28;20386;-41
2022/03/07 03:23:05;;;;;;;14.77;10.32;;;-0.70;99.90;;;;;;5093293;28;20050;-45
2022/03/07 03:25:31;;;;;;;16.58;10.52;;;-0.90;99.90;;;;;;5091770;28;20044;-42
2022/03/07 03:27:57;;;;;;;19.30;11.07;;;-0.90;99.90;;;;;;5092886;28;20052;-43
2022/03/07 03:30:23;;;;;;;16.63;11.07;;;-1.00;99.90;;;;;;5092869;28;20036;-43
2022/03/07 03:32:48;;;;;;;16.88;10.57;;;-0.90;99.90;;;;;;5089080;28;20038;-43
2022/03/07 03:35:14;;;;;;;19.25;10.48;;;-1.20;99.90;;;;;;5092656;28;20083;-42
2022/03/07 03:37:40;;;;;;;15.30;10.30;;;-1.20;99.90;;;;;;5092559;28;20035;-40
2022/03/07 03:40:11;;;;;;;15.07;10.27;;;-1.10;99.90;;;;;;5092703;28;20043;-41
2022/03/07 03:42:37;;;;;;;17.60;10.25;;;-1.20;99.90;;;;;;5092805;28;20040;-43
2022/03/07 03:45:05;;;;;;;18.30;10.13;;;-1.10;99.90;;;;;;5092072;28;20295;-44
2022/03/07 03:47:34;;;;;;;20.15;10.48;;;-1.30;99.90;;;;;;5091988;28;20047;-42
2022/03/07 03:50:00;;;;;;;16.75;10.80;;;-1.10;99.90;;;;;;5092306;28;20036;-44
2022/03/07 03:52:26;;;;;;;16.65;10.82;;;-1.20;99.90;;;;;;5092321;28;20101;-41
2022/03/07 03:54:52;;;;;;;21.13;11.25;;;-1.00;99.90;;;;;;5092586;28;20430;-41
2022/03/07 03:57:18;;;;;;;21.48;11.98;;;-1.20;99.90;;;;;;5092115;28;20032;-44
2022/03/07 03:59:43;;;;;;;17.70;11.40;;;-0.40;99.90;;;;;;5092239;28;20083;-42
2022/03/07 04:02:09;;;;;;;21.95;11.60;;;-1.20;99.90;;;;;;5090779;28;20051;-41
2022/03/07 04:04:35;;;;;;;16.90;11.60;;;-1.00;99.90;;;;;;5092140;28;20098;-43
2022/03/07 04:07:01;;;;;;;17.63;10.68;;;-1.20;99.90;;;;;;5091915;28;20498;-42
2022/03/07 04:09:26;;;;;;;19.40;11.13;;;-1.50;99.90;;;;;;5091693;28;20040;-47
2022/03/07 04:11:54;;;;;;;17.48;9.98;;;-1.30;99.90;;;;;;5092178;28;20036;-43
2022/03/07 04:14:20;;;;;;;17.25;10.10;;;-1.50;99.90;;;;;;5091496;28;20086;-42
2022/03/07 04:16:45;;;;;;;17.02;11.05;;;-1.70;99.90;;;;;;5092196;28;20035;-45
2022/03/07 04:19:12;;;;;;;17.80;11.30;;;-1.50;99.90;;;;;;5092059;28;20040;-41
2022/03/07 04:21:39;;;;;;;18.17;11.05;;;-1.40;99.90;;;;;;5091880;28;20068;-45
2022/03/07 04:24:06;;;;;;;17.30;11.05;;;-1.60;99.90;;;;;;5091865;28;20036;-45
2022/03/07 04:26:32;;;;;;;19.45;10.68;;;-1.50;99.90;;;;;;5091553;28;20075;-42
2022/03/07 04:28:59;;;;;;;18.73;11.00;;;-1.70;99.90;;;;;;5091663;28;20094;-43
2022/03/07 04:31:25;;;;;;;20.77;11.80;;;-1.50;99.90;;;;;;5090397;28;20090;-43
2022/03/07 04:33:51;;;;;;;19.95;11.70;;;-1.50;99.90;;;;;;5091609;28;20035;-43
2022/03/07 04:36:20;;;;;;;20.30;11.88;;;-1.50;99.90;;;;;;5090213;28;20482;-42
2022/03/07 04:38:47;;;;;;;22.55;11.23;;;-1.70;99.90;;;;;;5091241;28;20028;-44
2022/03/07 04:41:13;;;;;;;18.05;11.82;;;-1.80;99.90;;;;;;5091343;28;20032;-44
2022/03/07 04:43:39;;;;;;;21.90;12.82;;;-1.70;99.90;;;;;;5091325;28;20040;-40
2022/03/07 04:46:07;;;;;;;21.02;11.82;;;-1.50;99.90;;;;;;5091367;28;20036;-43
2022/03/07 04:48:33;;;;;;;20.23;12.88;;;-1.70;99.90;;;;;;5091423;28;20038;-41
2022/03/07 04:50:59;;;;;;;20.50;13.07;;;-1.60;99.90;;;;;;5090465;28;20039;-41
2022/03/07 04:53:25;;;;;;;22.70;12.70;;;-1.70;99.90;;;;;;5091056;28;20031;-41
2022/03/07 04:55:50;;;;;;;19.80;12.93;;;-1.60;99.90;;;;;;5089788;28;20047;-43
2022/03/07 04:58:16;;;;;;;24.80;13.52;;;-1.70;99.90;;;;;;5090709;28;20454;-42
2022/03/07 05:00:41;;;;;;;23.67;13.65;;;-1.70;99.90;;;;;;5089803;28;20127;-41
2022/03/07 05:03:07;;;;;;;22.67;14.13;;;-1.60;99.90;;;;;;5091288;28;20036;-44
2022/03/07 05:05:33;;;;;;;23.10;12.70;;;-1.60;99.90;;;;;;5091073;28;20040;-44
2022/03/07 05:07:58;;;;;;;23.27;13.50;;;-1.60;99.90;;;;;;5089310;28;20115;-42
2022/03/07 05:10:24;;;;;;;24.73;14.50;;;-1.60;99.90;;;;;;5090277;28;20040;-42
2022/03/07 05:12:50;;;;;;;22.60;14.05;;;-1.40;99.90;;;;;;5090766;28;20036;-42
2022/03/07 05:15:16;;;;;;;23.60;13.55;;;-1.50;99.90;;;;;;5090610;28;20036;-43
2022/03/07 05:17:51;;;;;;;20.33;13.45;;;-1.50;99.90;;;;;;5090592;28;20115;-44
2022/03/07 05:20:17;;;;;;;23.73;14.07;;;-1.70;99.90;;;;;;5089391;28;20046;-41
2022/03/07 05:22:44;;;;;;;24.38;13.90;;;-1.60;99.90;;;;;;5090525;28;20513;-41
2022/03/07 05:25:11;;;;;;;22.70;13.65;;;-1.60;99.90;;;;;;5090599;28;20055;-43
2022/03/07 05:27:38;;;;;;;22.35;14.48;;;-1.60;99.90;;;;;;5090307;28;20519;-41
2022/03/07 05:30:05;;;;;;;23.60;14.80;;;-1.70;99.90;;;;;;5090845;28;20189;-41
2022/03/07 05:32:31;;;;;;;25.42;15.43;;;-1.50;99.90;;;;;;5090489;28;20062;-43
2022/03/07 05:34:58;;;;;;;25.23;15.18;;;-1.50;99.90;;;;;;5089491;28;20048;-40
2022/03/07 05:37:23;;;;;;;24.60;15.10;;;-1.40;99.90;;;;;;5090735;28;20470;-42
2022/03/07 05:39:49;;;;;;;28.67;15.20;;;-1.70;99.90;;;;;;5090385;28;20040;-43
2022/03/07 05:42:15;;;;;;;23.98;15.05;;;-1.50;99.90;;;;;;5090534;28;20089;-44
2022/03/07 05:44:41;;;;;;;24.70;15.25;;;-1.70;99.90;;;;;;5088931;28;20059;-41
2022/03/07 05:47:07;;;;;;;26.85;15.48;;;-1.60;99.90;;;;;;5089478;28;20383;-44
2022/03/07 05:49:33;;;;;;;27.02;15.18;;;-1.40;99.90;;;;;;5087327;28;20089;-41
2022/03/07 05:51:58;;;;;;;22.52;15.27;;;-1.40;99.90;;;;;;5089710;28;20032;-43
2022/03/07 05:54:24;;;;;;;26.42;15.00;;;-1.50;99.90;;;;;;5089616;28;20036;-43
2022/03/07 05:56:50;;;;;;;25.27;15.23;;;-1.60;99.90;;;;;;5089478;28;20114;-42
2022/03/07 05:59:15;;;;;;;27.88;15.00;;;-1.40;99.90;;;;;;5089975;28;20554;-41
2022/03/07 06:01:41;;;;;;;27.50;14.70;;;-1.70;99.90;;;;;;5089096;28;20068;-43
2022/03/07 06:04:08;;;;;;;22.75;14.02;;;-1.80;99.90;;;;;;5090052;28;20047;-41
2022/03/07 06:06:34;;;;;;;23.23;14.82;;;-1.70;99.90;;;;;;5090049;28;20602;-41
2022/03/07 06:09:00;;;;;;;22.73;14.40;;;-1.60;99.90;;;;;;5088261;28;20119;-42
2022/03/07 06:11:25;;;;;;;23.65;14.60;;;-1.60;99.90;;;;;;5089687;28;20429;-41
2022/03/07 06:13:51;;;;;;;27.15;15.32;;;-1.70;99.90;;;;;;5089558;28;20044;-44
2022/03/07 06:16:17;;;;;;;24.63;14.85;;;-1.70;99.90;;;;;;5089659;28;20513;-42
2022/03/07 06:18:42;;;;;;;23.38;14.73;;;-1.60;99.90;;;;;;5089908;28;20518;-42
2022/03/07 06:21:08;;;;;;;24.80;15.18;;;-1.60;99.90;;;;;;5088985;28;20036;-42
2022/03/07 06:23:34;;;;;;;22.98;14.60;;;-1.70;99.90;;;;;;5093378;28;20070;-42
2022/03/07 06:25:59;;;;;;;21.77;13.57;;;-1.70;99.90;;;;;;5093486;28;20471;-43
2022/03/07 06:28:25;;;;;;;22.98;14.02;;;-1.80;99.90;;;;;;5093529;28;20406;-41
2022/03/07 06:30:51;;;;;;;24.35;13.75;;;-1.90;99.90;;;;;;5093737;28;20044;-46
2022/03/07 06:33:17;;;;;;;23.02;13.82;;;-1.80;99.90;;;;;;5093383;28;20051;-46
2022/03/07 06:35:43;;;;;;;25.27;14.43;;;-1.70;99.90;;;;;;5093254;28;20032;-44
2022/03/07 06:38:08;;;;;;;23.85;14.57;;;-1.80;99.90;;;;;;5092439;28;20039;-43
2022/03/07 06:40:34;;;;;;;24.58;13.52;;;-1.30;99.90;;;;;;5093312;28;20050;-41
2022/03/07 06:43:03;;;;;;;23.65;14.02;;;-1.60;99.90;;;;;;5093369;28;20035;-44
2022/03/07 06:45:30;;;;;;;23.65;13.80;;;-1.70;99.90;;;;;;5093197;28;20080;-41
2022/03/07 06:47:57;;;;;;;26.92;14.73;;;-1.80;99.90;;;;;;5093266;28;20471;-40
2022/03/07 06:50:23;;;;;;;24.08;13.88;;;-1.60;99.90;;;;;;5091741;28;20132;-42
2022/03/07 06:52:48;;;;;;;25.35;14.52;;;-1.80;99.90;;;;;;5092971;28;20036;-44
2022/03/07 06:55:15;;;;;;;26.65;14.43;;;-1.60;99.90;;;;;;5093189;28;20129;-42
2022/03/07 06:57:41;;;;;;;31.73;15.10;;;-1.80;99.90;;;;;;5093049;28;20044;-41
2022/03/07 07:00:09;;;;;;;25.00;14.07;;;-1.40;99.90;;;;;;5093138;28;20522;-40
2022/03/07 07:02:35;;;;;;;28.83;15.07;;;-1.50;99.90;;;;;;5092866;28;20047;-41
2022/03/07 07:05:03;;;;;;;26.77;16.05;;;-1.60;99.90;;;;;;5092833;28;20394;-40
2022/03/07 07:07:29;;;;;;;26.88;15.48;;;-1.30;99.90;;;;;;5091534;28;20032;-40
2022/03/07 07:09:55;;;;;;;29.13;15.23;;;-1.30;99.90;;;;;;5091911;28;20035;-42
2022/03/07 07:12:21;;;;;;;27.42;15.68;;;-1.40;99.90;;;;;;5092826;28;20210;-41
2022/03/07 07:14:47;;;;;;;32.03;16.40;;;-1.50;99.90;;;;;;5092725;28;20119;-41
2022/03/07 07:17:12;;;;;;;32.63;16.75;;;-1.20;99.90;;;;;;5093018;28;20043;-44
2022/03/07 07:19:38;;;;;;;32.47;17.17;;;-1.50;99.90;;;;;;5087244;28;20047;-43
2022/03/07 07:22:04;;;;;;;34.20;17.58;;;-1.10;99.90;;;;;;5090007;28;20032;-44
2022/03/07 07:24:30;;;;;;;36.47;17.67;;;-1.00;99.90;;;;;;5087468;28;20097;-43
2022/03/07 07:26:56;;;;;;;42.97;18.08;;;-1.20;99.90;;;;;;5084847;28;20056;-41
2022/03/07 07:29:22;;;;;;;34.15;16.90;;;-0.80;99.90;;;;;;5088233;28;20047;-42
2022/03/07 07:31:47;;;;;;;36.45;17.08;;;-0.90;99.90;;;;;;5088627;28;20086;-43
2022/03/07 07:34:14;;;;;;;33.30;17.58;;;-1.10;99.90;;;;;;5086692;28;20097;-44
2022/03/07 07:36:40;;;;;;;35.65;17.50;;;-0.70;99.90;;;;;;5084551;28;20036;-43
2022/03/07 07:39:05;;;;;;;35.22;18.30;;;-0.50;99.90;;;;;;5085375;28;20047;-41
2022/03/07 07:41:31;;;;;;;40.58;19.23;;;-0.40;99.90;;;;;;5087351;28;20044;-42
2022/03/07 07:43:57;;;;;;;37.53;19.30;;;-0.20;99.90;;;;;;5086092;28;20553;-40
2022/03/07 07:46:23;;;;;;;35.72;19.40;;;-0.20;99.90;;;;;;5082835;28;20039;-41
2022/03/07 07:48:48;;;;;;;33.22;18.58;;;-0.10;99.90;;;;;;5088455;28;20036;-42
2022/03/07 07:51:14;;;;;;;34.40;19.02;;;-0.10;99.90;;;;;;5088175;28;20036;-42
2022/03/07 07:53:40;;;;;;;39.58;20.27;;;-0.30;99.90;;;;;;5084414;28;20111;-42
2022/03/07 07:56:05;;;;;;;44.28;21.15;;;-0.20;99.90;;;;;;5075613;28;20499;-42
2022/03/07 07:58:31;;;;;;;37.45;21.05;;;0.20;99.90;;;;;;5088472;28;20950;-43
2022/03/07 08:00:57;;;;;;;37.90;22.55;;;0.20;99.90;;;;;;5085239;28;20044;-41
2022/03/07 08:03:23;;;;;;;36.72;21.02;;;0.00;99.90;;;;;;5081218;28;20048;-42
2022/03/07 08:05:48;;;;;;;40.72;20.75;;;0.40;99.90;;;;;;5087177;28;20096;-41
2022/03/07 08:08:15;;;;;;;36.40;20.63;;;0.20;99.90;;;;;;5087918;28;20032;-43
2022/03/07 08:10:41;;;;;;;38.63;21.17;;;0.30;99.90;;;;;;5084948;28;20741;-43
2022/03/07 08:13:07;;;;;;;37.20;20.60;;;0.20;99.90;;;;;;5081857;28;20060;-41
2022/03/07 08:15:33;;;;;;;35.85;20.55;;;0.30;99.90;;;;;;5089327;28;20075;-41
2022/03/07 08:17:59;;;;;;;38.30;19.75;;;0.60;99.90;;;;;;5085245;28;20496;-43
2022/03/07 08:20:25;;;;;;;36.00;20.55;;;0.70;99.90;;;;;;5080662;28;20054;-42
2022/03/07 08:22:51;;;;;;;38.63;20.92;;;0.80;99.90;;;;;;5087998;28;20434;-41
2022/03/07 08:25:17;;;;;;;37.72;19.42;;;0.90;99.90;;;;;;5080775;28;20089;-44
2022/03/07 08:27:43;;;;;;;36.05;19.65;;;0.90;99.90;;;;;;5084872;28;20056;-44
2022/03/07 08:30:12;;;;;;;30.23;17.85;;;1.00;99.90;;;;;;5085684;28;20044;-44
2022/03/07 08:32:38;;;;;;;31.60;18.13;;;0.90;99.90;;;;;;5082838;28;20372;-41
2022/03/07 08:35:05;;;;;;;31.08;17.42;;;1.00;99.90;;;;;;5086301;28;20039;-42
2022/03/07 08:37:31;;;;;;;31.33;17.55;;;1.40;99.90;;;;;;5084836;28;20036;-41
2022/03/07 08:39:57;;;;;;;30.48;17.83;;;1.30;99.90;;;;;;5081559;28;20044;-41
2022/03/07 08:42:23;;;;;;;33.35;16.13;;;1.70;99.90;;;;;;5085911;28;20164;-44
2022/03/07 08:44:51;;;;;;;29.27;16.42;;;1.50;99.90;;;;;;5084705;28;20495;-42
2022/03/07 08:47:17;;;;;;;27.75;16.20;;;1.60;99.90;;;;;;5082311;28;20410;-46
2022/03/07 08:49:42;;;;;;;27.15;15.45;;;1.50;99.90;;;;;;5083090;28;20067;-41
2022/03/07 08:52:09;;;;;;;24.80;14.93;;;1.50;99.90;;;;;;5086402;28;20137;-41
2022/03/07 08:54:35;;;;;;;21.38;13.07;;;1.60;99.90;;;;;;5089672;28;20052;-41
2022/03/07 08:57:01;;;;;;;22.25;14.38;;;1.80;99.90;;;;;;5090057;28;20028;-42
2022/03/07 08:59:28;;;;;;;19.67;13.30;;;1.90;99.90;;;;;;5090175;28;20034;-41
2022/03/07 09:01:56;;;;;;;20.35;12.40;;;2.10;99.90;;;;;;5090080;28;20534;-42
2022/03/07 09:04:24;;;;;;;18.13;12.50;;;3.00;99.90;;;;;;5089440;28;20074;-42
2022/03/07 09:06:53;;;;;;;16.23;11.32;;;2.30;99.90;;;;;;5089484;28;20107;-44
2022/03/07 09:09:19;;;;;;;20.33;11.13;;;2.50;99.90;;;;;;5089471;28;20071;-45
2022/03/07 09:11:45;;;;;;;16.73;11.25;;;2.60;99.90;;;;;;5090024;28;20086;-41
2022/03/07 09:14:11;;;;;;;15.50;10.68;;;2.60;99.90;;;;;;5089158;28;20092;-44
2022/03/07 09:16:36;;;;;;;16.40;10.40;;;2.80;99.90;;;;;;5088242;28;20040;-43
2022/03/07 09:19:03;;;;;;;17.13;10.18;;;3.00;99.90;;;;;;5088215;28;20062;-43
2022/03/07 09:21:29;;;;;;;16.30;9.80;;;3.20;99.90;;;;;;5089171;28;20036;-45
2022/03/07 09:23:54;;;;;;;16.33;10.68;;;3.40;99.90;;;;;;5089526;28;20046;-42
2022/03/07 09:26:20;;;;;;;17.08;9.80;;;3.50;99.90;;;;;;5089093;28;20583;-45
2022/03/07 09:28:46;;;;;;;13.77;10.20;;;3.70;99.90;;;;;;5088447;28;20040;-46
2022/03/07 09:31:11;;;;;;;18.17;10.90;;;3.80;99.90;;;;;;5070949;28;20043;-43
2022/03/07 09:33:38;;;;;;;13.10;9.35;;;3.80;99.90;;;;;;5088915;28;20399;-42
2022/03/07 09:36:04;;;;;;;13.60;9.05;;;4.10;99.90;;;;;;5089507;28;20043;-45
2022/03/07 09:38:30;;;;;;;14.88;8.43;;;4.30;99.90;;;;;;5089055;28;20453;-46
2022/03/07 09:40:56;;;;;;;12.82;8.85;;;4.40;99.90;;;;;;5089170;28;20407;-46
2022/03/07 09:43:22;;;;;;;17.83;9.00;;;4.30;99.90;;;;;;5087760;28;20166;-45
2022/03/07 09:45:49;;;;;;;15.38;8.30;;;4.50;99.90;;;;;;5089158;28;20574;-42
2022/03/07 09:48:15;;;;;;;11.52;8.00;;;4.50;99.90;;;;;;5087330;28;20051;-43
2022/03/07 09:50:42;;;;;;;12.70;8.27;;;4.60;99.90;;;;;;5088624;28;20036;-41
2022/03/07 09:53:09;;;;;;;13.20;8.68;;;4.70;99.90;;;;;;5087356;28;20115;-41
2022/03/07 09:55:36;;;;;;;15.65;8.50;;;4.90;99.90;;;;;;5086543;28;20484;-44
2022/03/07 09:58:02;;;;;;;14.02;8.18;;;4.80;99.90;;;;;;5088454;28;20143;-45
2022/03/07 10:00:28;;;;;;;12.90;7.70;;;4.90;99.90;;;;;;5087983;28;20048;-43
2022/03/07 10:03:02;;;;;;;12.20;8.13;;;4.80;99.90;;;;;;5088742;28;20483;-44
2022/03/07 10:05:43;;;;;;;13.20;7.53;;;4.70;99.90;;;;;;5088202;28;20032;-41
2022/03/07 10:08:10;;;;;;;11.65;6.80;;;4.90;99.90;;;;;;5088011;28;20453;-43
2022/03/07 10:10:41;;;;;;;13.93;8.27;;;5.10;99.90;;;;;;5088404;28;20047;-43
2022/03/07 10:13:12;;;;;;;12.43;7.18;;;5.10;99.90;;;;;;5085883;28;20798;-44
2022/03/07 10:15:40;;;;;;;9.90;5.93;;;5.20;99.90;;;;;;5085546;28;20115;-43
2022/03/07 10:18:10;;;;;;;8.43;5.07;;;5.20;99.90;;;;;;5086600;28;20478;-43
2022/03/07 10:20:36;;;;;;;8.35;5.20;;;5.20;99.90;;;;;;5084910;28;20101;-45
2022/03/07 10:23:02;;;;;;;9.32;5.65;;;5.40;99.90;;;;;;5088179;28;20471;-42
2022/03/07 10:25:29;;;;;;;9.13;5.38;;;5.40;99.90;;;;;;5088327;28;20154;-45
2022/03/07 10:27:58;;;;;;;9.40;6.05;;;5.30;99.90;;;;;;5088126;28;20048;-41
2022/03/07 10:30:32;;;;;;;9.75;5.40;;;5.20;99.90;;;;;;5087421;28;20127;-42
2022/03/07 10:33:00;;;;;;;10.18;5.85;;;5.50;99.90;;;;;;5087102;28;20044;-43
2022/03/07 10:35:32;;;;;;;9.52;6.10;;;5.60;99.90;;;;;;5088113;28;20047;-43
2022/03/07 10:38:00;;;;;;;10.00;5.35;;;5.50;99.90;;;;;;5088333;28;20040;-40
2022/03/07 10:40:26;;;;;;;11.88;5.88;;;5.90;99.90;;;;;;5116394;28;20036;-44
2022/03/07 10:42:55;;;;;;;8.95;5.82;;;6.10;99.90;;;;;;5086673;28;20044;-42
2022/03/07 10:45:22;;;;;;;12.88;5.55;;;5.90;99.90;;;;;;5088369;28;20101;-41
2022/03/07 10:47:59;;;;;;;8.05;4.68;;;6.00;99.90;;;;;;5088319;28;20035;-46
2022/03/07 10:50:27;;;;;;;7.22;4.90;;;6.10;99.90;;;;;;5086547;28;20093;-43
2022/03/07 10:52:59;;;;;;;9.63;4.78;;;6.30;99.90;;;;;;5087883;28;20055;-43
2022/03/07 10:55:28;;;;;;;8.15;4.97;;;6.30;99.90;;;;;;5087392;28;20447;-45
2022/03/07 10:58:11;;;;;;;8.60;4.55;;;6.50;99.90;;;;;;5085793;28;20044;-44
2022/03/07 11:00:51;;;;;;;10.20;4.65;;;6.10;99.90;;;;;;5087623;28;20043;-42
2022/03/07 11:03:22;;;;;;;8.38;4.45;;;6.70;99.90;;;;;;5087642;28;20545;-44
2022/03/07 11:05:48;;;;;;;7.57;3.80;;;7.20;99.90;;;;;;5085917;28;20471;-43
2022/03/07 11:08:16;;;;;;;8.68;4.43;;;7.40;99.90;;;;;;5089062;28;20415;-43
2022/03/07 11:10:46;;;;;;;9.85;4.20;;;7.80;99.90;;;;;;5090451;28;20042;-45
2022/03/07 11:13:14;;;;;;;7.65;4.10;;;7.30;99.90;;;;;;5090220;28;20044;-41
2022/03/07 11:15:45;;;;;;;8.32;4.35;;;7.60;99.90;;;;;;5087521;28;20395;-41
2022/03/07 11:18:12;;;;;;;8.10;3.95;;;7.50;99.90;;;;;;5089923;28;20036;-44
2022/03/07 11:20:44;;;;;;;8.05;4.25;;;8.00;99.90;;;;;;5082961;28;20032;-43
2022/03/07 11:23:17;;;;;;;6.68;3.42;;;7.70;99.90;;;;;;5090698;28;20119;-42
2022/03/07 11:25:45;;;;;;;8.05;4.15;;;7.70;99.90;;;;;;5083187;28;20046;-45
2022/03/07 11:28:11;;;;;;;6.22;3.75;;;7.90;99.90;;;;;;5086764;28;20047;-43
2022/03/07 11:30:42;;;;;;;7.57;3.92;;;8.10;99.90;;;;;;5085279;28;20048;-43
2022/03/07 11:33:13;;;;;;;7.47;3.38;;;8.40;99.90;;;;;;5084741;28;20101;-44
2022/03/07 11:35:44;;;;;;;7.07;3.40;;;8.20;99.90;;;;;;5086158;28;20048;-42
2022/03/07 11:38:23;;;;;;;6.00;3.20;;;8.40;99.90;;;;;;5083122;28;20047;-44
2022/03/07 11:41:06;;;;;;;6.70;3.20;;;8.70;99.90;;;;;;5086696;28;20449;-43
2022/03/07 11:43:47;;;;;;;5.57;3.30;;;8.80;99.90;;;;;;5086648;28;20044;-41
2022/03/07 11:46:40;;;;;;;7.53;3.30;;;9.10;99.90;;;;;;5083881;28;20048;-42
2022/03/07 11:49:22;;;;;;;7.50;3.00;;;9.40;99.90;;;;;;5088095;28;20075;-47
2022/03/07 11:51:58;;;;;;;7.80;3.03;;;9.50;99.90;;;;;;5083791;28;20035;-45
2022/03/07 11:54:23;;;;;;;5.22;2.78;;;9.20;99.90;;;;;;5119297;27;20054;-43
2022/03/07 11:56:49;;;;;;;6.30;2.58;;;9.70;99.90;;;;;;5087347;28;20115;-42
2022/03/07 11:59:15;;;;;;;4.60;2.33;;;10.10;99.90;;;;;;5083764;28;20039;-43
2022/03/07 12:01:52;;;;;;;5.72;2.20;;;10.40;99.90;;;;;;5086687;28;20031;-42
2022/03/07 12:04:18;;;;;;;6.43;2.40;;;10.10;98.50;;;;;;5086411;28;20090;-42
2022/03/07 12:06:53;;;;;;;5.43;2.70;;;10.40;98.80;;;;;;5084353;28;20106;-45
2022/03/07 12:09:34;;;;;;;4.40;2.20;;;10.30;99.00;;;;;;5087170;28;20089;-45
2022/03/07 12:12:13;;;;;;;4.75;2.67;;;10.40;96.60;;;;;;5083072;28;20044;-44
2022/03/07 12:14:41;;;;;;;6.10;2.33;;;10.50;98.20;;;;;;5086967;28;20036;-42
2022/03/07 12:17:16;;;;;;;5.25;2.60;;;10.60;99.00;;;;;;5087155;28;20119;-43
2022/03/07 12:19:43;;;;;;;4.88;2.45;;;10.40;96.90;;;;;;5083323;28;20076;-44
2022/03/07 12:22:15;;;;;;;4.63;1.83;;;10.70;98.30;;;;;;5082901;28;20119;-43
2022/03/07 12:24:41;;;;;;;4.95;2.05;;;11.10;92.80;;;;;;5085292;28;20065;-43
2022/03/07 12:27:09;;;;;;;4.63;1.98;;;10.80;97.00;;;;;;5083367;28;20140;-42
2022/03/07 12:29:39;;;;;;;3.63;2.15;;;10.60;92.30;;;;;;5087727;28;20083;-44
2022/03/07 12:32:05;;;;;;;6.07;2.30;;;10.80;91.80;;;;;;5087029;28;20080;-46
2022/03/07 12:34:33;;;;;;;4.05;2.00;;;10.70;94.30;;;;;;5090525;28;20040;-45
2022/03/07 12:37:21;;;;;;;4.93;2.10;;;11.00;97.80;;;;;;5092015;28;20040;-41